Time;durP1;ratioP1;P1;durP2;ratioP2;P2;SDS_P1;SDS_P2;PMS_P1;PMS_P2;Temp;Humidity;BMP_temperature;BMP_pressure;BME280_temperature;BME280_humidity;BME280_pressure;Samples;Min_cycle;Max_cycle;Signal;HPM_P1;HPM_P2
2022/02/14 00:00:07;;;;;;;11.20;8.13;;;3.30;68.00;;;;;;5055159;28;20135;-61
2022/02/14 00:02:33;;;;;;;12.00;8.32;;;3.30;68.50;;;;;;5054977;28;20049;-61
2022/02/14 00:05:00;;;;;;;12.70;8.70;;;3.30;68.60;;;;;;5051850;28;20083;-61
2022/02/14 00:07:25;;;;;;;11.40;7.10;;;3.30;67.90;;;;;;5054054;28;20408;-61
2022/02/14 00:09:51;;;;;;;11.93;7.88;;;3.30;67.90;;;;;;5054637;28;20032;-61
2022/02/14 00:12:16;;;;;;;11.77;8.02;;;3.30;67.80;;;;;;5055060;28;20033;-61
2022/02/14 00:14:42;;;;;;;11.90;7.35;;;3.40;67.80;;;;;;5071738;28;20024;-61
2022/02/14 00:17:08;;;;;;;13.65;8.30;;;3.30;67.70;;;;;;5074736;28;20174;-61
2022/02/14 00:19:33;;;;;;;10.30;7.05;;;3.30;67.80;;;;;;5067309;28;20381;-61
2022/02/14 00:22:00;;;;;;;11.82;7.18;;;3.30;67.90;;;;;;5075085;28;20070;-61
2022/02/14 00:24:26;;;;;;;9.52;6.47;;;3.30;67.90;;;;;;5074941;28;20021;-61
2022/02/14 00:26:53;;;;;;;9.85;7.45;;;3.30;67.90;;;;;;5074738;28;20025;-61
2022/02/14 00:29:20;;;;;;;10.25;6.43;;;3.30;67.90;;;;;;5057058;28;20481;-61
2022/02/14 00:31:46;;;;;;;10.75;6.95;;;3.20;67.80;;;;;;5053833;28;20021;-61
2022/02/14 00:34:12;;;;;;;11.05;7.35;;;3.20;67.90;;;;;;5053927;28;20049;-61
2022/02/14 00:36:37;;;;;;;9.48;6.28;;;3.20;68.60;;;;;;5060018;28;20043;-61
2022/02/14 00:39:04;;;;;;;11.18;7.47;;;3.20;68.00;;;;;;5074397;28;20025;-61
2022/02/14 00:41:29;;;;;;;9.75;5.63;;;3.10;68.00;;;;;;5074316;28;20020;-61
2022/02/14 00:43:55;;;;;;;10.40;7.40;;;3.10;68.20;;;;;;5074495;28;20020;-61
2022/02/14 00:46:20;;;;;;;9.27;7.40;;;3.10;68.10;;;;;;5074316;28;20103;-61
2022/02/14 00:48:46;;;;;;;9.65;5.93;;;3.10;68.20;;;;;;5074331;28;20082;-61
2022/02/14 00:51:12;;;;;;;11.15;6.55;;;3.00;68.20;;;;;;5056114;28;20102;-61
2022/02/14 00:53:38;;;;;;;13.05;7.20;;;3.00;68.40;;;;;;5054165;28;20103;-61
2022/02/14 00:56:04;;;;;;;11.73;8.48;;;2.90;68.40;;;;;;5058534;28;20435;-61
2022/02/14 00:58:30;;;;;;;14.20;7.00;;;3.00;68.70;;;;;;5053518;28;20505;-61
2022/02/14 01:00:55;;;;;;;11.93;7.03;;;3.00;68.60;;;;;;5054085;28;20025;-61
2022/02/14 01:03:21;;;;;;;12.13;7.57;;;3.00;68.60;;;;;;5053975;28;20021;-61
2022/02/14 01:05:47;;;;;;;13.00;8.15;;;3.00;68.60;;;;;;5053808;28;20032;-61
2022/02/14 01:08:12;;;;;;;12.73;7.53;;;3.00;68.60;;;;;;5053751;28;20379;-61
2022/02/14 01:10:38;;;;;;;13.10;7.28;;;2.90;68.50;;;;;;5053639;28;20033;-61
2022/02/14 01:13:04;;;;;;;10.27;6.85;;;2.90;68.70;;;;;;5053872;28;20036;-61
2022/02/14 01:15:30;;;;;;;11.60;6.53;;;2.90;68.70;;;;;;5053916;28;20022;-61
2022/02/14 01:17:56;;;;;;;10.45;5.90;;;2.90;68.80;;;;;;5053473;28;20036;-61
2022/02/14 01:20:21;;;;;;;9.13;5.55;;;2.90;68.80;;;;;;5053704;28;20017;-61
2022/02/14 01:22:47;;;;;;;9.90;6.18;;;2.90;68.80;;;;;;5059591;28;20456;-61
2022/02/14 01:25:13;;;;;;;9.20;6.30;;;2.90;68.90;;;;;;5073465;28;20028;-61
2022/02/14 01:27:40;;;;;;;11.25;6.93;;;2.90;68.80;;;;;;5064625;28;20055;-61
2022/02/14 01:30:07;;;;;;;11.40;7.50;;;2.90;68.80;;;;;;5062139;28;20033;-61
2022/02/14 01:32:33;;;;;;;9.48;6.70;;;2.90;68.90;;;;;;5073163;28;20040;-61
2022/02/14 01:34:59;;;;;;;8.70;6.00;;;2.90;68.90;;;;;;5063397;28;20127;-61
2022/02/14 01:37:25;;;;;;;10.20;6.22;;;2.80;68.90;;;;;;5053109;28;20420;-61
2022/02/14 01:39:51;;;;;;;8.85;5.57;;;2.80;69.00;;;;;;5052876;28;20029;-61
2022/02/14 01:42:17;;;;;;;10.00;6.40;;;2.80;69.00;;;;;;5053273;28;20017;-61
2022/02/14 01:44:50;;;;;;;9.13;6.70;;;2.80;69.00;;;;;;5052804;28;20032;-61
2022/02/14 01:47:21;;;;;;;11.75;6.68;;;2.80;69.40;;;;;;5053699;28;20048;-61
2022/02/14 01:49:48;;;;;;;7.90;5.40;;;2.80;69.20;;;;;;5053053;28;20079;-61
2022/02/14 01:52:15;;;;;;;10.70;7.13;;;2.80;69.30;;;;;;5054459;28;20017;-61
2022/02/14 01:54:44;;;;;;;10.57;7.25;;;2.80;69.90;;;;;;5072792;28;20491;-61
2022/02/14 01:57:11;;;;;;;10.32;6.07;;;2.80;69.20;;;;;;5042776;28;20034;-61
2022/02/14 01:59:38;;;;;;;9.65;6.45;;;2.80;69.20;;;;;;5058926;28;20473;-61
2022/02/14 02:02:06;;;;;;;8.68;6.65;;;2.80;69.20;;;;;;5065066;28;20021;-61
2022/02/14 02:04:32;;;;;;;8.88;5.60;;;2.80;69.20;;;;;;5052896;28;20507;-61
2022/02/14 02:06:57;;;;;;;9.82;6.78;;;2.70;69.10;;;;;;5044177;28;20030;-61
2022/02/14 02:09:24;;;;;;;12.25;6.72;;;2.70;69.30;;;;;;5052949;28;20025;-61
2022/02/14 02:14:35;;;;;;;7.53;5.65;;;2.70;69.10;;;;;;5052856;28;20075;-61
2022/02/14 02:17:01;;;;;;;9.00;5.85;;;2.70;69.20;;;;;;5052841;28;20033;-61
2022/02/14 02:19:26;;;;;;;10.63;5.88;;;2.70;69.20;;;;;;5052664;28;20100;-61
2022/02/14 02:21:52;;;;;;;8.43;5.72;;;2.60;69.20;;;;;;5052984;28;20025;-61
2022/02/14 02:24:22;;;;;;;11.60;6.10;;;2.60;69.40;;;;;;5052771;28;20037;-61
2022/02/14 02:27:04;;;;;;;8.63;5.95;;;2.60;69.40;;;;;;5054759;28;20303;-61
2022/02/14 02:29:37;;;;;;;10.93;6.05;;;2.60;69.40;;;;;;5058317;28;20036;-61
2022/02/14 02:32:08;;;;;;;9.27;7.00;;;2.50;69.50;;;;;;5067311;28;20031;-61
2022/02/14 02:34:41;;;;;;;8.60;5.63;;;2.50;69.60;;;;;;5051963;28;20044;-61
2022/02/14 02:37:12;;;;;;;8.00;5.30;;;2.50;69.40;;;;;;5059743;28;20119;-61
2022/02/14 02:39:39;;;;;;;9.88;5.22;;;2.50;69.40;;;;;;5073017;28;20031;-61
2022/02/14 02:42:05;;;;;;;10.10;7.00;;;2.50;69.60;;;;;;5073225;28;20423;-61
2022/02/14 02:44:32;;;;;;;8.75;5.63;;;2.50;69.90;;;;;;5073131;28;20556;-61
2022/02/14 02:47:00;;;;;;;8.38;6.85;;;2.50;69.70;;;;;;5072931;28;20024;-61
2022/02/14 02:49:26;;;;;;;10.93;6.50;;;2.50;69.80;;;;;;5073280;28;20427;-61
2022/02/14 02:51:53;;;;;;;8.05;5.97;;;2.40;69.80;;;;;;5055290;28;20120;-61
2022/02/14 02:54:20;;;;;;;10.60;6.05;;;2.40;69.70;;;;;;5063082;28;20103;-61
2022/02/14 02:56:48;;;;;;;9.27;6.60;;;2.40;69.70;;;;;;5058791;28;20064;-61
2022/02/14 02:59:14;;;;;;;9.13;6.15;;;2.40;69.80;;;;;;5046454;28;20035;-61
2022/02/14 03:01:41;;;;;;;8.73;5.90;;;2.40;69.90;;;;;;5056364;28;20028;-61
2022/02/14 03:04:09;;;;;;;9.30;5.90;;;2.40;69.90;;;;;;5060577;28;20461;-61
2022/02/14 03:06:35;;;;;;;11.10;6.68;;;2.50;70.00;;;;;;5056713;28;20029;-61
2022/02/14 03:09:02;;;;;;;9.35;5.93;;;2.50;70.10;;;;;;5056420;28;20037;-61
2022/02/14 03:11:27;;;;;;;10.93;7.50;;;2.50;70.10;;;;;;5056916;28;20065;-61
2022/02/14 03:13:53;;;;;;;9.77;6.75;;;2.50;70.00;;;;;;5056346;28;20534;-61
2022/02/14 03:16:19;;;;;;;11.30;7.43;;;2.50;69.80;;;;;;5056379;28;20428;-61
2022/02/14 03:18:46;;;;;;;9.75;5.93;;;2.40;69.80;;;;;;5056492;28;20024;-61
2022/02/14 03:21:13;;;;;;;9.93;5.75;;;2.40;70.00;;;;;;5056311;28;20024;-61
2022/02/14 03:23:40;;;;;;;10.45;6.20;;;2.40;70.00;;;;;;5056395;28;20071;-61
2022/02/14 03:26:06;;;;;;;9.55;6.05;;;2.40;70.00;;;;;;5055873;28;20028;-61
2022/02/14 03:28:32;;;;;;;10.77;6.25;;;2.40;70.10;;;;;;5056449;28;20040;-61
2022/02/14 03:30:59;;;;;;;10.32;6.00;;;2.40;70.10;;;;;;5058194;28;20033;-60
2022/02/14 03:33:25;;;;;;;12.13;6.65;;;2.40;69.90;;;;;;5056112;28;20033;-61
2022/02/14 03:35:51;;;;;;;7.85;5.90;;;2.40;70.00;;;;;;5061827;28;20047;-61
2022/02/14 03:38:17;;;;;;;12.95;8.00;;;2.40;70.00;;;;;;5075819;28;20028;-61
2022/02/14 03:40:43;;;;;;;8.85;6.05;;;2.30;70.00;;;;;;5068720;28;20044;-61
2022/02/14 03:43:10;;;;;;;12.02;6.63;;;2.30;70.00;;;;;;5047461;28;20455;-61
2022/02/14 03:45:37;;;;;;;14.95;7.28;;;2.30;70.10;;;;;;5055828;28;20021;-61
2022/02/14 03:48:03;;;;;;;11.05;6.85;;;2.30;70.20;;;;;;5054527;28;20021;-61
2022/02/14 03:50:29;;;;;;;9.15;5.95;;;2.30;70.10;;;;;;5055662;28;20027;-61
2022/02/14 03:52:55;;;;;;;10.43;7.00;;;2.30;70.20;;;;;;5055638;28;20033;-61
2022/02/14 03:55:23;;;;;;;11.80;7.80;;;2.30;70.00;;;;;;5055638;28;20021;-61
2022/02/14 03:57:50;;;;;;;11.32;7.00;;;2.20;70.10;;;;;;5054552;28;20024;-61
2022/02/14 04:00:18;;;;;;;10.40;6.63;;;2.20;70.20;;;;;;5060885;28;20119;-61
2022/02/14 04:02:44;;;;;;;10.32;6.30;;;2.10;70.30;;;;;;5075544;28;20452;-61
2022/02/14 04:05:11;;;;;;;11.38;6.38;;;2.10;70.30;;;;;;5060936;28;20108;-61
2022/02/14 04:07:37;;;;;;;11.05;7.07;;;2.10;70.30;;;;;;5047040;28;20018;-61
2022/02/14 04:10:04;;;;;;;10.18;6.45;;;2.10;70.40;;;;;;5066251;28;20381;-61
2022/02/14 04:12:30;;;;;;;8.30;5.28;;;2.10;70.30;;;;;;5068869;28;20555;-61
2022/02/14 04:14:56;;;;;;;8.60;6.32;;;2.00;70.30;;;;;;5075344;28;20024;-61
2022/02/14 04:17:22;;;;;;;9.00;6.03;;;2.00;70.20;;;;;;5067491;28;20063;-61
2022/02/14 04:19:48;;;;;;;9.98;5.47;;;2.00;70.30;;;;;;5074106;28;20025;-61
2022/02/14 04:22:14;;;;;;;10.82;6.15;;;1.90;70.20;;;;;;5075055;28;20043;-61
2022/02/14 04:24:39;;;;;;;9.98;6.85;;;1.90;70.30;;;;;;5075067;28;20077;-61
2022/02/14 04:27:05;;;;;;;8.65;6.03;;;1.90;70.30;;;;;;5071291;28;20469;-61
2022/02/14 04:29:31;;;;;;;10.95;7.55;;;1.90;70.40;;;;;;5064867;28;20361;-61
2022/02/14 04:31:56;;;;;;;10.65;6.57;;;1.90;70.40;;;;;;5054866;28;20028;-61
2022/02/14 04:34:22;;;;;;;13.57;6.82;;;1.90;70.40;;;;;;5054343;28;20047;-61
2022/02/14 04:36:49;;;;;;;10.88;7.05;;;1.90;70.40;;;;;;5055148;28;20110;-61
2022/02/14 04:39:16;;;;;;;8.40;5.88;;;1.90;70.30;;;;;;5054150;28;20025;-61
2022/02/14 04:41:42;;;;;;;12.48;6.72;;;1.90;70.40;;;;;;5054099;28;20079;-61
2022/02/14 04:44:08;;;;;;;14.02;9.23;;;1.90;70.50;;;;;;5054105;28;20029;-61
2022/02/14 04:46:34;;;;;;;14.70;8.55;;;1.90;70.50;;;;;;5053979;28;20028;-61
2022/02/14 04:49:00;;;;;;;14.55;9.05;;;1.80;70.50;;;;;;5053896;28;20025;-61
2022/02/14 04:51:25;;;;;;;17.40;11.52;;;1.80;70.50;;;;;;5053841;28;20384;-61
2022/02/14 04:53:52;;;;;;;17.23;9.68;;;1.80;70.50;;;;;;5053979;28;20036;-61
2022/02/14 04:56:18;;;;;;;16.15;10.15;;;1.80;70.50;;;;;;5052058;28;20481;-61
2022/02/14 04:58:44;;;;;;;16.67;9.27;;;1.80;70.50;;;;;;5051050;28;20108;-61
2022/02/14 05:01:10;;;;;;;16.02;9.65;;;1.80;70.60;;;;;;5054398;28;20036;-61
2022/02/14 05:03:36;;;;;;;17.15;9.05;;;1.80;70.60;;;;;;5052627;28;20064;-61
2022/02/14 05:06:02;;;;;;;20.08;10.52;;;1.80;70.60;;;;;;5054517;28;20357;-61
2022/02/14 05:08:27;;;;;;;20.55;9.82;;;1.80;70.70;;;;;;5053938;28;20509;-61
2022/02/14 05:10:53;;;;;;;17.58;10.10;;;1.80;70.80;;;;;;5054129;28;20035;-61
2022/02/14 05:13:19;;;;;;;14.77;9.70;;;1.80;70.80;;;;;;5048333;28;20033;-61
2022/02/14 05:15:44;;;;;;;17.58;9.70;;;1.80;70.60;;;;;;5044624;28;20039;-61
2022/02/14 05:18:10;;;;;;;17.33;10.82;;;1.70;70.60;;;;;;5053054;28;20060;-61
2022/02/14 05:20:36;;;;;;;17.88;9.82;;;1.70;70.80;;;;;;5054012;28;20021;-61
2022/02/14 05:23:01;;;;;;;20.05;10.23;;;1.60;70.80;;;;;;5053669;28;20025;-61
2022/02/14 05:25:27;;;;;;;19.90;10.85;;;1.70;70.80;;;;;;5053795;28;20431;-61
2022/02/14 05:27:53;;;;;;;19.55;9.68;;;1.70;71.50;;;;;;5053818;28;20043;-61
2022/02/14 05:30:20;;;;;;;24.08;12.00;;;1.70;70.90;;;;;;5056918;28;20037;-61
2022/02/14 05:32:45;;;;;;;24.17;12.32;;;1.70;70.90;;;;;;5053636;28;20021;-61
2022/02/14 05:35:11;;;;;;;21.65;11.00;;;1.70;71.00;;;;;;5053078;28;20683;-62
2022/02/14 05:37:37;;;;;;;26.85;13.18;;;1.70;71.10;;;;;;5053872;28;20031;-61
2022/02/14 05:40:03;;;;;;;17.58;10.38;;;1.70;71.10;;;;;;5053046;28;20059;-61
2022/02/14 05:42:28;;;;;;;15.07;10.00;;;1.80;71.30;;;;;;5053503;28;20468;-61
2022/02/14 05:44:54;;;;;;;16.50;9.38;;;1.90;71.30;;;;;;5053483;28;20025;-61
2022/02/14 05:47:20;;;;;;;13.35;8.25;;;2.00;71.30;;;;;;5053311;28;20021;-61
2022/02/14 05:49:45;;;;;;;14.95;10.02;;;2.10;71.20;;;;;;5053159;28;20055;-61
2022/02/14 05:52:11;;;;;;;14.32;8.20;;;2.20;71.10;;;;;;5053566;28;20163;-61
2022/02/14 05:54:37;;;;;;;15.57;9.13;;;2.30;71.10;;;;;;5053462;28;20029;-61
2022/02/14 05:57:03;;;;;;;14.15;8.68;;;2.40;71.10;;;;;;5046506;28;20026;-61
2022/02/14 05:59:29;;;;;;;15.98;10.63;;;2.50;71.00;;;;;;5056118;28;20029;-61
2022/02/14 06:01:54;;;;;;;15.35;9.38;;;2.60;70.70;;;;;;5071718;28;20024;-61
2022/02/14 06:04:20;;;;;;;17.88;9.63;;;2.70;70.30;;;;;;5064174;28;20477;-61
2022/02/14 06:06:45;;;;;;;20.45;14.10;;;2.80;70.20;;;;;;5052945;28;20017;-61
2022/02/14 06:09:12;;;;;;;21.48;12.40;;;2.90;70.20;;;;;;5041079;28;20111;-61
2022/02/14 06:11:39;;;;;;;22.90;14.07;;;2.90;69.80;;;;;;5053604;28;20037;-61
2022/02/14 06:14:04;;;;;;;22.42;16.48;;;3.10;69.70;;;;;;5053154;28;20115;-61
2022/02/14 06:16:31;;;;;;;21.15;12.25;;;3.20;69.40;;;;;;5053023;28;20069;-61
2022/02/14 06:18:57;;;;;;;18.17;12.50;;;3.30;69.20;;;;;;5048005;28;20021;-61
2022/02/14 06:21:24;;;;;;;15.27;11.13;;;3.30;69.10;;;;;;5046110;28;20079;-61
2022/02/14 06:23:50;;;;;;;17.33;11.57;;;3.50;68.90;;;;;;5047396;28;20025;-60
2022/02/14 06:26:16;;;;;;;15.73;10.93;;;3.60;68.80;;;;;;5049804;28;20370;-60
2022/02/14 06:28:42;;;;;;;15.43;11.55;;;3.70;68.40;;;;;;5050032;28;20389;-60
2022/02/14 06:31:09;;;;;;;16.08;10.20;;;3.80;67.90;;;;;;5049016;28;20036;-60
2022/02/14 06:33:35;;;;;;;17.38;12.20;;;3.90;67.80;;;;;;5058446;28;20419;-60
2022/02/14 06:36:02;;;;;;;19.25;13.38;;;4.00;67.80;;;;;;5048702;28;20033;-60
2022/02/14 06:38:27;;;;;;;18.20;11.90;;;4.10;67.50;;;;;;5046620;28;20155;-60
2022/02/14 06:40:53;;;;;;;19.02;12.05;;;4.20;67.10;;;;;;5052016;28;20096;-60
2022/02/14 06:43:19;;;;;;;20.63;13.15;;;4.20;66.70;;;;;;5050867;28;20369;-60
2022/02/14 06:45:45;;;;;;;14.35;11.70;;;4.30;66.30;;;;;;5052258;28;20369;-60
2022/02/14 06:48:12;;;;;;;17.05;12.82;;;4.40;66.10;;;;;;5054771;28;20020;-60
2022/02/14 06:50:38;;;;;;;18.13;13.25;;;4.50;65.80;;;;;;5055742;28;20550;-60
2022/02/14 06:53:03;;;;;;;15.77;12.88;;;4.60;65.50;;;;;;5048542;28;20033;-60
2022/02/14 06:55:29;;;;;;;20.48;14.45;;;4.60;65.20;;;;;;5049859;28;20426;-60
2022/02/14 06:57:55;;;;;;;20.98;14.95;;;4.70;65.00;;;;;;5045656;28;20032;-60
2022/02/14 07:00:21;;;;;;;20.10;15.00;;;4.70;64.70;;;;;;5040587;28;20576;-61
2022/02/14 07:02:47;;;;;;;24.23;16.02;;;4.80;64.60;;;;;;5041562;28;20124;-60
2022/02/14 07:05:19;;;;;;;21.10;15.77;;;4.80;64.40;;;;;;5047148;28;20037;-60
2022/02/14 07:07:46;;;;;;;23.55;16.85;;;4.90;64.30;;;;;;5050942;28;20032;-60
2022/02/14 07:10:15;;;;;;;22.75;16.17;;;4.90;64.20;;;;;;5051248;28;20033;-59
2022/02/14 07:12:41;;;;;;;22.30;15.25;;;4.90;64.00;;;;;;5059470;28;20341;-60
2022/02/14 07:15:09;;;;;;;17.08;12.88;;;5.00;63.90;;;;;;5047202;28;20021;-59
2022/02/14 07:17:35;;;;;;;21.92;13.77;;;5.00;63.80;;;;;;5050494;28;20083;-60
2022/02/14 07:20:01;;;;;;;19.25;13.98;;;5.00;63.60;;;;;;5048812;28;20027;-60
2022/02/14 07:22:26;;;;;;;20.52;13.13;;;5.00;63.50;;;;;;5044300;28;20124;-59
2022/02/14 07:24:52;;;;;;;16.70;11.80;;;5.00;63.20;;;;;;5047742;28;20035;-60
2022/02/14 07:27:18;;;;;;;17.23;12.40;;;5.00;63.20;;;;;;5042754;28;20108;-59
2022/02/14 07:29:43;;;;;;;18.05;11.75;;;5.10;63.20;;;;;;5047590;28;20101;-59
2022/02/14 07:32:09;;;;;;;15.65;11.27;;;5.10;63.20;;;;;;5046635;28;20037;-60
2022/02/14 07:34:35;;;;;;;16.70;11.30;;;5.10;63.00;;;;;;5046243;28;20049;-60
2022/02/14 07:37:02;;;;;;;18.60;11.45;;;5.10;63.00;;;;;;5044416;28;20486;-60
2022/02/14 07:39:32;;;;;;;16.13;11.45;;;5.10;62.80;;;;;;5050128;28;20041;-59
2022/02/14 07:42:01;;;;;;;14.80;10.30;;;5.10;62.60;;;;;;5045954;28;20029;-59
2022/02/14 07:44:27;;;;;;;16.08;11.00;;;5.10;62.50;;;;;;5046550;28;20021;-61
2022/02/14 07:46:54;;;;;;;14.57;11.55;;;5.10;62.40;;;;;;5040924;28;20037;-61
2022/02/14 07:49:23;;;;;;;15.27;11.40;;;5.10;62.30;;;;;;5041845;28;20107;-61
2022/02/14 07:51:49;;;;;;;15.13;11.25;;;5.10;62.50;;;;;;5046977;28;20029;-59
2022/02/14 07:54:15;;;;;;;15.68;11.27;;;5.20;62.70;;;;;;5046017;28;20094;-60
2022/02/14 07:56:41;;;;;;;15.15;10.75;;;5.20;62.60;;;;;;5048009;28;20397;-61
2022/02/14 07:59:07;;;;;;;19.08;12.80;;;5.20;62.40;;;;;;5047262;28;20025;-60
2022/02/14 08:01:33;;;;;;;19.80;11.63;;;5.20;62.20;;;;;;5046164;28;20027;-60
2022/02/14 08:03:59;;;;;;;18.80;13.25;;;5.20;62.20;;;;;;5047151;28;20104;-60
2022/02/14 08:06:25;;;;;;;22.67;13.18;;;5.20;62.00;;;;;;5042806;28;20429;-60
2022/02/14 08:08:51;;;;;;;20.58;11.93;;;5.20;62.00;;;;;;5045144;28;20037;-60
2022/02/14 08:11:19;;;;;;;19.35;11.68;;;5.30;61.90;;;;;;5046872;28;20036;-61
2022/02/14 08:13:45;;;;;;;16.88;12.00;;;5.30;61.90;;;;;;5043897;28;20047;-60
2022/02/14 08:16:11;;;;;;;16.88;11.00;;;5.30;61.90;;;;;;5049742;28;20064;-60
2022/02/14 08:18:37;;;;;;;18.38;12.43;;;5.40;61.80;;;;;;5044375;28;20068;-60
2022/02/14 08:21:04;;;;;;;16.52;10.90;;;5.40;61.60;;;;;;5045780;28;20492;-60
2022/02/14 08:23:30;;;;;;;13.15;9.35;;;5.40;61.40;;;;;;5042314;28;20031;-60
2022/02/14 08:25:56;;;;;;;16.10;10.55;;;5.40;61.30;;;;;;5044101;28;20033;-60
2022/02/14 08:28:23;;;;;;;15.45;10.70;;;5.40;61.10;;;;;;5039535;28;20652;-60
2022/02/14 08:30:50;;;;;;;13.98;10.27;;;5.40;61.20;;;;;;5038817;28;20040;-60
2022/02/14 08:33:16;;;;;;;13.93;9.98;;;5.50;61.10;;;;;;5038511;28;20378;-59
2022/02/14 08:35:42;;;;;;;13.10;9.45;;;5.50;60.90;;;;;;5045521;28;20102;-59
2022/02/14 08:38:07;;;;;;;15.75;9.73;;;5.50;60.70;;;;;;5042460;28;20033;-59
2022/02/14 08:40:35;;;;;;;13.70;10.10;;;5.50;60.30;;;;;;5046714;28;20424;-59
2022/02/14 08:43:02;;;;;;;16.23;9.45;;;5.50;60.30;;;;;;5049843;28;20121;-60
2022/02/14 08:45:36;;;;;;;12.98;10.80;;;5.50;60.90;;;;;;5050919;28;20476;-59
2022/02/14 08:48:03;;;;;;;16.35;9.80;;;5.50;60.10;;;;;;5042491;28;20532;-59
2022/02/14 08:50:29;;;;;;;13.98;9.90;;;5.50;60.10;;;;;;5047278;28;20044;-59
2022/02/14 08:52:56;;;;;;;15.38;9.70;;;5.50;60.30;;;;;;5036534;28;20505;-60
2022/02/14 08:55:22;;;;;;;14.40;9.57;;;5.50;60.10;;;;;;5037052;28;20043;-60
2022/02/14 08:57:48;;;;;;;13.07;9.60;;;5.50;60.00;;;;;;5042728;28;20037;-60
2022/02/14 09:00:15;;;;;;;14.07;8.80;;;5.50;59.80;;;;;;5040394;28;20036;-60
2022/02/14 09:02:41;;;;;;;10.25;7.93;;;5.50;59.70;;;;;;5039711;28;20182;-59
2022/02/14 09:05:07;;;;;;;14.27;9.57;;;5.50;59.60;;;;;;5041570;28;20028;-59
2022/02/14 09:07:33;;;;;;;12.02;8.18;;;5.50;59.60;;;;;;5044782;28;20044;-60
2022/02/14 09:09:58;;;;;;;10.10;7.72;;;5.50;59.70;;;;;;5038221;28;20444;-60
2022/02/14 09:12:24;;;;;;;12.07;8.48;;;5.50;59.40;;;;;;5041962;28;20109;-60
2022/02/14 09:14:50;;;;;;;10.68;7.32;;;5.50;59.30;;;;;;5041756;28;20029;-59
2022/02/14 09:17:17;;;;;;;12.23;8.13;;;5.50;59.30;;;;;;5033882;28;20043;-60
2022/02/14 09:19:43;;;;;;;10.15;8.00;;;5.60;59.00;;;;;;5040321;28;20139;-59
2022/02/14 09:22:09;;;;;;;10.90;7.50;;;5.60;58.90;;;;;;5037658;28;20036;-59
2022/02/14 09:24:35;;;;;;;11.68;7.55;;;5.60;58.70;;;;;;5031122;28;20057;-60
2022/02/14 09:27:01;;;;;;;10.82;7.50;;;5.60;58.50;;;;;;5038602;28;20021;-59
2022/02/14 09:29:26;;;;;;;9.88;7.38;;;5.60;58.10;;;;;;5039442;28;20091;-59
2022/02/14 09:31:54;;;;;;;10.63;7.88;;;5.60;58.00;;;;;;5033919;28;20672;-59
2022/02/14 09:34:21;;;;;;;9.52;6.78;;;5.70;58.00;;;;;;5036349;28;20107;-60
2022/02/14 09:36:47;;;;;;;11.27;7.53;;;5.70;57.80;;;;;;5045217;28;20043;-60
2022/02/14 09:39:13;;;;;;;13.15;7.68;;;5.70;57.80;;;;;;5038643;28;20037;-59
2022/02/14 09:41:40;;;;;;;8.15;6.28;;;5.70;57.80;;;;;;5040674;28;20064;-59
2022/02/14 09:44:07;;;;;;;10.05;6.85;;;5.70;57.80;;;;;;5041116;28;20025;-59
2022/02/14 09:46:35;;;;;;;9.52;7.40;;;5.70;57.60;;;;;;5040000;28;20032;-59
2022/02/14 09:49:02;;;;;;;11.63;7.75;;;5.70;57.70;;;;;;5036818;28;20087;-59
2022/02/14 09:51:29;;;;;;;11.32;8.15;;;5.70;57.70;;;;;;5038931;28;20588;-60
2022/02/14 09:53:55;;;;;;;9.77;6.60;;;5.70;57.80;;;;;;5030702;28;20033;-59
2022/02/14 09:56:22;;;;;;;12.10;6.82;;;5.80;58.60;;;;;;5029112;28;20028;-59
2022/02/14 09:58:48;;;;;;;12.73;7.13;;;5.80;57.50;;;;;;5037366;28;20126;-60
2022/02/14 10:01:15;;;;;;;10.70;7.47;;;5.80;57.10;;;;;;5036700;28;20075;-59
2022/02/14 10:03:53;;;;;;;10.77;7.45;;;5.80;57.20;;;;;;5039632;28;20395;-59
2022/02/14 10:06:39;;;;;;;13.07;7.80;;;5.80;57.10;;;;;;5041544;28;20105;-59
2022/02/14 10:09:05;;;;;;;10.32;7.25;;;5.90;57.30;;;;;;5040999;28;20123;-60
2022/02/14 10:11:32;;;;;;;11.02;7.32;;;5.80;57.60;;;;;;5037886;28;20037;-59
2022/02/14 10:14:18;;;;;;;11.50;6.82;;;5.90;57.50;;;;;;5044908;28;20043;-60
2022/02/14 10:17:02;;;;;;;11.52;6.07;;;5.90;57.00;;;;;;5044764;28;20388;-60
2022/02/14 10:19:30;;;;;;;11.98;6.57;;;5.90;56.80;;;;;;5043363;28;20183;-59
2022/02/14 10:21:56;;;;;;;11.27;6.93;;;5.90;56.60;;;;;;5036931;28;20044;-59
2022/02/14 10:24:23;;;;;;;9.55;6.50;;;5.90;56.50;;;;;;5038636;28;20032;-60
2022/02/14 10:26:51;;;;;;;8.65;6.38;;;5.90;56.30;;;;;;5035695;28;20040;-59
2022/02/14 10:29:27;;;;;;;8.70;5.88;;;5.90;56.00;;;;;;5040118;28;20076;-60
2022/02/14 10:32:17;;;;;;;9.00;6.30;;;5.90;55.50;;;;;;5037948;28;20087;-60
2022/02/14 10:34:45;;;;;;;7.05;5.55;;;6.00;55.40;;;;;;5040146;28;20072;-59
2022/02/14 10:37:16;;;;;;;7.53;5.30;;;6.00;55.30;;;;;;5039314;28;20493;-59
2022/02/14 10:39:43;;;;;;;7.32;5.40;;;6.00;55.10;;;;;;5041516;28;20048;-60
2022/02/14 10:42:14;;;;;;;7.07;5.00;;;6.00;54.90;;;;;;5039323;28;20036;-59
2022/02/14 10:47:40;;;;;;;9.18;5.82;;;6.10;54.60;;;;;;5036354;28;20044;-60
2022/02/14 10:50:17;;;;;;;8.57;5.10;;;6.10;54.40;;;;;;5034243;28;20037;-60
2022/02/14 10:52:58;;;;;;;6.85;4.90;;;6.10;54.00;;;;;;5037489;28;20038;-60
2022/02/14 10:55:26;;;;;;;8.80;5.95;;;6.10;53.90;;;;;;5034756;28;20041;-59
2022/02/14 10:57:52;;;;;;;8.23;5.93;;;6.10;53.70;;;;;;5034823;28;20676;-60
2022/02/14 11:00:21;;;;;;;7.97;5.50;;;6.20;53.60;;;;;;5034670;28;20040;-60
2022/02/14 11:02:52;;;;;;;8.50;6.00;;;6.20;53.30;;;;;;5034534;28;20410;-60
2022/02/14 11:05:20;;;;;;;7.85;5.57;;;6.20;53.30;;;;;;5045685;28;20086;-59
2022/02/14 11:07:46;;;;;;;7.85;5.43;;;6.20;53.30;;;;;;5040561;28;20042;-60
2022/02/14 11:10:15;;;;;;;6.72;5.22;;;6.20;53.10;;;;;;5041109;28;20523;-60
2022/02/14 11:12:54;;;;;;;8.18;5.03;;;6.30;53.10;;;;;;5040097;28;20473;-60
2022/02/14 11:15:23;;;;;;;7.45;5.47;;;6.30;52.70;;;;;;5040899;28;20026;-60
2022/02/14 11:17:59;;;;;;;7.13;5.43;;;6.30;52.50;;;;;;5039027;28;20033;-60
2022/02/14 11:20:25;;;;;;;9.65;5.15;;;6.30;52.40;;;;;;5040374;28;20706;-60
2022/02/14 11:22:53;;;;;;;8.07;5.43;;;6.30;52.20;;;;;;5039719;28;20032;-60
2022/02/14 11:25:26;;;;;;;8.00;5.53;;;6.30;52.10;;;;;;5040465;28;20037;-60
2022/02/14 11:28:10;;;;;;;9.20;5.45;;;6.30;52.00;;;;;;5044436;28;20060;-61
2022/02/14 11:30:36;;;;;;;7.95;5.32;;;6.40;51.80;;;;;;5036945;28;20043;-61
2022/02/14 11:33:13;;;;;;;6.07;4.32;;;6.30;51.60;;;;;;5040684;28;20021;-60
2022/02/14 11:35:43;;;;;;;6.78;4.93;;;6.30;51.40;;;;;;5041155;28;20055;-61
2022/02/14 11:38:09;;;;;;;9.15;4.82;;;6.30;51.50;;;;;;5040879;28;20029;-61
2022/02/14 11:40:40;;;;;;;7.93;5.22;;;6.30;51.20;;;;;;5034730;28;20532;-60
2022/02/14 11:43:09;;;;;;;8.32;5.30;;;6.30;51.00;;;;;;5035960;28;20041;-61
2022/02/14 11:45:36;;;;;;;8.95;5.70;;;6.30;51.20;;;;;;5044211;28;20474;-61
2022/02/14 11:48:27;;;;;;;8.65;5.68;;;6.40;51.30;;;;;;5045363;28;20025;-61
2022/02/14 11:51:16;;;;;;;9.95;6.28;;;6.40;50.60;;;;;;5046063;28;20033;-60
2022/02/14 11:53:48;;;;;;;7.07;4.82;;;6.40;50.70;;;;;;5044563;28;20060;-60
2022/02/14 11:56:25;;;;;;;7.40;5.13;;;6.40;50.80;;;;;;5045298;28;20040;-60
2022/02/14 11:59:11;;;;;;;7.95;5.22;;;6.50;50.40;;;;;;5043350;28;20039;-60
2022/02/14 12:01:49;;;;;;;7.05;4.68;;;6.40;50.10;;;;;;5040000;28;21351;-61
2022/02/14 12:04:37;;;;;;;8.15;4.80;;;6.50;50.70;;;;;;5041342;28;20035;-60
2022/02/14 12:07:26;;;;;;;5.85;4.30;;;6.50;50.00;;;;;;5040234;28;20040;-61
2022/02/14 12:09:58;;;;;;;6.10;4.70;;;6.50;50.20;;;;;;5040646;28;20037;-60
2022/02/14 12:12:39;;;;;;;7.03;4.88;;;6.50;50.10;;;;;;5041165;28;20094;-60
2022/02/14 12:21:10;;;;;;;6.45;4.32;;;6.50;49.90;;;;;;5036167;28;20056;-61
2022/02/14 12:24:26;;;;;;;5.30;4.10;;;6.50;49.70;;;;;;5055083;28;20424;-61
2022/02/14 12:26:59;;;;;;;7.28;4.53;;;6.50;49.70;;;;;;5039761;28;20124;-60
2022/02/14 12:29:33;;;;;;;6.93;4.47;;;6.50;49.60;;;;;;5042576;28;20064;-61
2022/02/14 12:31:59;;;;;;;8.10;5.07;;;6.50;49.50;;;;;;5036500;28;20047;-61
2022/02/14 12:34:30;;;;;;;8.70;4.97;;;6.50;49.40;;;;;;5042107;28;20057;-61
2022/02/14 12:36:59;;;;;;;8.27;4.70;;;6.50;49.20;;;;;;5045044;28;20033;-61
2022/02/14 12:39:28;;;;;;;8.70;4.88;;;6.50;49.30;;;;;;5047081;28;20044;-60
2022/02/14 12:41:54;;;;;;;13.35;5.72;;;6.50;49.10;;;;;;5047717;28;20025;-60
2022/02/14 12:44:20;;;;;;;7.63;5.25;;;6.60;49.20;;;;;;5039262;28;20028;-60
2022/02/14 12:46:46;;;;;;;6.55;5.13;;;6.60;49.30;;;;;;5043381;28;20033;-60
2022/02/14 12:49:12;;;;;;;9.57;4.70;;;6.60;49.30;;;;;;5040978;28;20060;-60
2022/02/14 12:51:37;;;;;;;5.43;4.30;;;6.70;49.70;;;;;;5044774;28;20044;-61
2022/02/14 12:54:09;;;;;;;10.32;5.25;;;6.70;49.80;;;;;;5046558;28;21257;-61
2022/02/14 12:56:37;;;;;;;6.03;4.75;;;6.70;49.20;;;;;;5041455;28;20033;-61
2022/02/14 12:59:05;;;;;;;6.63;4.43;;;6.70;49.20;;;;;;5051840;28;20036;-61
2022/02/14 13:01:36;;;;;;;9.50;5.30;;;6.70;49.20;;;;;;5041399;28;20025;-61